createdAt,value
2023-02-11T00:09:35.981Z,13.90
2023-02-11T00:19:35.457Z,14.20
2023-02-11T00:29:35.266Z,14.30
2023-02-11T00:39:34.803Z,11.80
2023-02-11T00:49:34.540Z,13.60
2023-02-11T00:59:34.175Z,12.10
2023-02-11T01:09:28.300Z,13.70
2023-02-11T01:19:27.932Z,13.20
2023-02-11T01:29:29.090Z,11.80
2023-02-11T01:39:27.206Z,12.80
2023-02-11T01:49:27.090Z,12.60
2023-02-11T01:59:26.508Z,12.50
2023-02-11T02:09:26.317Z,12.20
2023-02-11T02:19:25.777Z,13.20
2023-02-11T02:29:25.574Z,13.00
2023-02-11T02:39:25.036Z,13.10
2023-02-11T02:49:29.694Z,12.50
2023-02-11T02:59:24.364Z,12.60
2023-02-11T03:09:24.188Z,12.50
2023-02-11T03:19:18.575Z,12.80
2023-02-11T03:29:18.249Z,12.50
2023-02-11T03:39:17.983Z,11.60
2023-02-11T03:49:17.666Z,13.20
2023-02-11T03:59:17.178Z,9.10
2023-02-11T04:09:16.946Z,12.40
2023-02-11T04:19:16.558Z,13.20
2023-02-11T04:29:16.422Z,13.00
2023-02-11T04:39:15.921Z,14.40
2023-02-11T04:49:15.686Z,10.50
2023-02-11T04:59:15.253Z,11.40
2023-02-11T05:09:09.763Z,11.80
2023-02-11T05:19:09.366Z,12.80
2023-02-11T05:29:09.171Z,12.10
2023-02-11T05:39:08.398Z,13.00
2023-02-11T05:49:08.172Z,12.30
2023-02-11T05:59:07.634Z,13.40
2023-02-11T06:09:07.631Z,12.80
2023-02-11T06:19:06.937Z,10.10
2023-02-11T06:29:06.609Z,11.00
2023-02-11T06:39:06.343Z,9.80
2023-02-11T06:49:00.965Z,7.90
2023-02-11T06:59:00.430Z,8.00
2023-02-11T07:09:00.239Z,10.50
2023-02-11T07:18:59.694Z,11.10
2023-02-11T07:28:59.468Z,11.30
2023-02-11T07:38:58.932Z,12.30
2023-02-11T07:48:58.594Z,12.40
2023-02-11T07:58:58.197Z,11.80
2023-02-11T08:08:59.493Z,13.50
2023-02-11T08:18:57.480Z,13.20
2023-02-11T08:28:57.117Z,12.20
2023-02-11T08:38:51.327Z,9.50
2023-02-11T08:48:50.958Z,12.20
2023-02-11T08:58:50.568Z,11.20
2023-02-11T09:08:50.388Z,12.00
2023-02-11T09:18:49.813Z,10.90
2023-02-11T09:28:49.696Z,12.70
2023-02-11T09:38:54.098Z,11.70
2023-02-11T09:48:48.924Z,9.60
2023-02-11T09:58:48.367Z,11.30
2023-02-11T10:08:48.338Z,11.90
2023-02-11T10:18:42.825Z,12.40
2023-02-11T10:28:42.329Z,13.30
2023-02-11T10:38:41.934Z,13.30
2023-02-11T10:48:41.512Z,12.40
2023-02-11T10:58:41.335Z,13.30
2023-02-11T11:08:41.155Z,11.50
2023-02-11T11:18:40.487Z,12.50
2023-02-11T11:28:40.125Z,12.60
2023-02-11T11:38:40.174Z,12.80
2023-02-11T11:48:39.550Z,12.70
2023-02-11T11:58:39.163Z,12.50
2023-02-11T12:08:38.786Z,12.60
2023-02-11T12:18:33.555Z,11.80
2023-02-11T12:28:32.917Z,10.10
2023-02-11T12:38:32.506Z,13.00
2023-02-11T12:48:34.123Z,12.10
2023-02-11T12:58:43.087Z,13.40
2023-02-11T13:08:31.406Z,12.30
2023-02-11T13:18:31.225Z,15.50
2023-02-11T13:28:30.888Z,13.90
2023-02-11T13:38:30.298Z,14.80
2023-02-11T13:48:29.957Z,15.10
2023-02-11T13:58:29.714Z,13.80
2023-02-11T14:08:29.370Z,15.30
2023-02-11T14:18:28.859Z,12.60
2023-02-11T14:28:28.631Z,14.00
2023-02-11T14:38:23.044Z,14.70
2023-02-11T14:48:22.705Z,15.20
2023-02-11T14:58:22.465Z,15.20
2023-02-11T15:08:22.142Z,16.30
2023-02-11T15:18:21.600Z,16.40
2023-02-11T15:28:21.345Z,16.80
2023-02-11T15:38:20.891Z,17.50
2023-02-11T15:48:20.546Z,18.00
2023-02-11T15:58:26.327Z,17.40
2023-02-11T16:08:20.149Z,18.00
2023-02-11T16:18:19.436Z,18.30
2023-02-11T16:28:19.160Z,18.50
2023-02-11T16:38:18.724Z,21.10
2023-02-11T16:48:18.360Z,17.50
2023-02-11T16:58:18.114Z,18.60
2023-02-11T17:08:20.781Z,20.90
2023-02-11T17:18:17.213Z,19.60
2023-02-11T17:28:11.686Z,19.80
2023-02-11T17:38:11.539Z,19.40
2023-02-11T17:48:10.905Z,20.60
2023-02-11T17:58:10.541Z,18.40
2023-02-11T18:08:10.385Z,18.10
2023-02-11T18:18:09.966Z,18.40
2023-02-11T18:28:09.628Z,18.90
2023-02-11T18:38:10.583Z,19.40
2023-02-11T18:48:08.702Z,20.00
2023-02-11T18:58:08.676Z,20.50
2023-02-11T19:08:07.975Z,20.50
2023-02-11T19:18:07.654Z,21.00
2023-02-11T19:28:07.260Z,20.20
2023-02-11T19:38:06.938Z,21.40
2023-02-11T19:48:06.711Z,21.40
2023-02-11T19:58:06.491Z,22.40
2023-02-11T20:08:05.790Z,21.50
2023-02-11T20:18:05.811Z,21.70
2023-02-11T20:28:00.067Z,22.20
2023-02-11T20:37:59.822Z,22.40
2023-02-11T20:47:59.280Z,23.80
2023-02-11T20:57:59.279Z,20.80
2023-02-11T21:07:58.558Z,30.90
2023-02-11T21:17:58.218Z,22.70
2023-02-11T21:27:57.898Z,22.80
2023-02-11T21:37:57.458Z,22.10
2023-02-11T21:47:57.107Z,22.40
2023-02-11T21:57:56.752Z,23.10
2023-02-11T22:07:56.567Z,23.80
2023-02-11T22:17:56.024Z,21.20
2023-02-11T22:27:55.706Z,22.20
2023-02-11T22:37:55.397Z,21.90
2023-02-11T22:47:54.966Z,22.90
2023-02-11T22:57:54.675Z,23.10
2023-02-11T23:07:54.869Z,20.30
2023-02-11T23:17:53.848Z,22.80
2023-02-11T23:27:48.592Z,22.80
2023-02-11T23:37:47.882Z,23.30
2023-02-11T23:47:47.580Z,22.90
2023-02-11T23:57:47.174Z,23.10
